Falls International Airport
KINL : now visible

Airfield :











YOU CAN JOIN US ON...

 
LOGIN :

Register | Disclaimer

   EN    FR    IT 

 









Legend :    VFR   Marginal VFR   IFR   Intensive IFR   Very Intensive IFR
Visi :
Ceiling :
>= 8 km
>= 3000ft
5 to 8 km
1000 to 3000 ft
1500m to 5 km
500 to 1000 ft
800 to 1500m
200 to 500 ft
< 800m
< 200 ft
Symbols :   Thunderstorms  Fog  Heavy snow  Heavy precipitations  Wind > 20 kt






- Airport Elevation : 1185 ft
- IATA code : INL


KINL - Falls International

CURRENT METAR :
  • 080554Z AUTO 24007KT 10SM CLR M02/M06 A2988 RMK AO2 SLP138 T10171061 11011 21050 400001078 53004

EXPIRED METARs :
  • 080454Z AUTO 23008KT 10SM CLR M01/M06 A2987 RMK AO2 SLP135 T10111061
  • 080354Z AUTO 23008KT 10SM CLR M02/M08 A2988 RMK AO2 SLP137 T10171078
  • 080254Z AUTO 24006KT 10SM CLR M02/M08 A2987 RMK AO2 SLP136 T10171083 56011

TAF KINL
Valid from the 08 at 06:00 until the 09 at 06:00 UTC


080521Z 0806/0906 22006KT P6SM SCT250
FM090000 VRB03KT P6SM OVC050
KZMP FIR / North America



MET'MAP, your aeronautical weather chart ! - Copyright ORBIFLY December 2007 - Disclaimer

ORBIFLY MET'MAP TEAM :

Programming & Development : Alexandra Zaïnal
Original concept : Baudouin d'Aumeries
Technical & hardware support : Manuel Goepfert
Assistance : Marc-Olivier Méhu




SOURCES & CREDITS :

   NOAA       Earth
Advisory